createdAt,value
2022-07-31T00:01:50.248Z,6.37
2022-07-31T00:04:18.696Z,10.70
2022-07-31T00:06:47.069Z,6.93
2022-07-31T00:09:46.947Z,8.20
2022-07-31T00:12:05.691Z,7.07
2022-07-31T00:14:39.494Z,8.73
2022-07-31T00:17:08.023Z,6.00
2022-07-31T00:19:45.257Z,5.60
2022-07-31T00:22:13.839Z,10.27
2022-07-31T00:24:43.763Z,9.80
2022-07-31T00:27:12.318Z,5.83
2022-07-31T00:29:40.870Z,6.23
2022-07-31T00:32:09.364Z,8.40
2022-07-31T00:34:37.876Z,4.03
2022-07-31T00:37:06.853Z,6.70
2022-07-31T00:39:35.549Z,13.83
2022-07-31T00:42:05.855Z,9.00
2022-07-31T00:44:34.619Z,6.83
2022-07-31T00:47:07.555Z,9.33
2022-07-31T00:49:37.401Z,8.77
2022-07-31T00:52:06.827Z,7.03
2022-07-31T00:54:35.671Z,13.77
2022-07-31T00:57:06.190Z,5.23
2022-07-31T00:59:37.027Z,8.23
2022-07-31T01:02:05.540Z,6.73
2022-07-31T01:04:34.125Z,6.13
2022-07-31T01:07:06.758Z,7.07
2022-07-31T01:09:36.119Z,6.93
2022-07-31T01:12:08.066Z,7.53
2022-07-31T01:14:37.913Z,7.37
2022-07-31T01:17:10.222Z,5.20
2022-07-31T01:19:42.498Z,9.23
2022-07-31T01:22:32.960Z,7.20
2022-07-31T01:25:05.738Z,10.63
2022-07-31T01:27:49.790Z,7.60
2022-07-31T01:30:20.090Z,6.33
2022-07-31T01:32:51.598Z,9.47
2022-07-31T01:35:25.350Z,10.10
2022-07-31T01:38:02.333Z,6.37
2022-07-31T01:40:38.531Z,7.50
2022-07-31T01:43:07.555Z,6.10
2022-07-31T01:45:40.677Z,6.90
2022-07-31T01:48:10.853Z,10.20
2022-07-31T01:50:42.934Z,9.63
2022-07-31T01:53:12.742Z,5.67
2022-07-31T01:56:02.302Z,9.57
2022-07-31T01:58:31.192Z,4.73
2022-07-31T02:01:01.470Z,9.27
2022-07-31T02:03:43.651Z,4.23
2022-07-31T02:06:14.169Z,4.07
2022-07-31T02:08:42.803Z,7.43
2022-07-31T02:11:11.378Z,6.07
2022-07-31T02:13:40.050Z,4.90
2022-07-31T02:16:09.973Z,5.73
2022-07-31T02:18:43.574Z,5.57
2022-07-31T02:21:12.083Z,5.50
2022-07-31T02:23:43.287Z,5.27
2022-07-31T02:26:12.758Z,5.27
2022-07-31T02:28:43.070Z,11.63
2022-07-31T02:31:13.695Z,12.00
2022-07-31T02:33:42.984Z,5.53
2022-07-31T02:36:14.575Z,4.97
2022-07-31T02:38:43.179Z,5.87
2022-07-31T02:41:14.086Z,6.60
2022-07-31T02:43:44.507Z,6.30
2022-07-31T02:46:14.409Z,4.33
2022-07-31T02:48:43.145Z,6.73
2022-07-31T02:51:11.694Z,9.43
2022-07-31T02:53:41.665Z,6.10
2022-07-31T02:56:10.490Z,9.60
2022-07-31T02:58:44.365Z,4.83
2022-07-31T03:01:17.766Z,7.33
2022-07-31T03:03:46.371Z,9.93
2022-07-31T03:06:14.993Z,5.90
2022-07-31T03:08:45.069Z,5.63
2022-07-31T03:11:14.818Z,9.50
2022-07-31T03:13:46.764Z,7.07
2022-07-31T03:16:16.674Z,5.47
2022-07-31T03:18:46.494Z,5.27
2022-07-31T03:21:19.303Z,5.63
2022-07-31T03:23:50.517Z,7.97
2022-07-31T03:26:21.745Z,6.47
2022-07-31T03:29:01.411Z,6.30
2022-07-31T03:31:35.126Z,5.83
2022-07-31T03:34:03.875Z,8.77
2022-07-31T03:36:37.527Z,7.13
2022-07-31T03:39:10.705Z,7.30
2022-07-31T03:41:39.208Z,8.27
2022-07-31T03:44:09.900Z,6.50
2022-07-31T03:46:39.958Z,6.07
2022-07-31T03:49:10.905Z,9.53
2022-07-31T03:51:41.783Z,6.97
2022-07-31T03:54:10.362Z,7.23
2022-07-31T03:56:41.651Z,10.23
2022-07-31T03:59:18.904Z,9.00
2022-07-31T04:01:56.882Z,13.73
2022-07-31T04:04:31.027Z,11.13
2022-07-31T04:06:59.753Z,9.37
2022-07-31T04:09:29.416Z,13.30
2022-07-31T04:12:03.804Z,11.30
2022-07-31T04:14:37.260Z,11.50
2022-07-31T04:17:12.776Z,10.23
2022-07-31T04:19:41.387Z,12.53
2022-07-31T04:22:12.394Z,13.13
2022-07-31T04:24:41.078Z,11.70
2022-07-31T04:27:12.751Z,12.70
2022-07-31T04:29:46.057Z,12.07
2022-07-31T04:32:18.318Z,13.63
2022-07-31T04:34:46.806Z,14.57
2022-07-31T04:37:16.338Z,12.93
2022-07-31T04:39:44.890Z,14.20
2022-07-31T04:42:13.574Z,18.63
2022-07-31T04:44:42.084Z,13.13
2022-07-31T04:47:10.619Z,16.17
2022-07-31T04:49:40.692Z,16.87
2022-07-31T04:52:11.940Z,14.27
2022-07-31T04:54:42.533Z,21.77
2022-07-31T04:57:10.915Z,16.43
2022-07-31T04:59:59.014Z,16.27
2022-07-31T05:02:28.064Z,15.13
2022-07-31T05:05:01.076Z,14.73
2022-07-31T05:07:30.738Z,20.23
2022-07-31T05:10:04.791Z,16.80
2022-07-31T05:12:35.548Z,22.70
2022-07-31T05:15:04.184Z,16.37
2022-07-31T05:17:37.913Z,18.03
2022-07-31T05:20:14.649Z,18.07
2022-07-31T05:22:43.157Z,17.83
2022-07-31T05:25:11.752Z,23.07
2022-07-31T05:27:41.236Z,17.83
2022-07-31T05:30:11.023Z,18.70
2022-07-31T05:32:40.513Z,16.87
2022-07-31T05:35:09.640Z,20.83
2022-07-31T05:37:39.791Z,14.77
2022-07-31T05:40:08.760Z,21.40
2022-07-31T05:42:37.262Z,22.87
2022-07-31T05:45:06.209Z,19.47
2022-07-31T05:47:41.151Z,19.33
2022-07-31T05:50:10.269Z,26.23
2022-07-31T05:52:40.085Z,23.80
2022-07-31T05:55:11.959Z,19.77
2022-07-31T05:57:40.432Z,21.37
2022-07-31T06:00:09.837Z,18.20
2022-07-31T06:02:40.047Z,20.03
2022-07-31T06:05:08.822Z,24.80
2022-07-31T06:07:37.297Z,20.90
2022-07-31T06:10:08.357Z,17.40
2022-07-31T06:12:36.865Z,23.33
2022-07-31T06:15:05.520Z,21.07
2022-07-31T06:17:43.609Z,20.87
2022-07-31T06:20:13.466Z,28.17
2022-07-31T06:22:43.878Z,24.90
2022-07-31T06:25:14.847Z,24.07
2022-07-31T06:27:45.978Z,23.83
2022-07-31T06:30:20.560Z,21.80
2022-07-31T06:32:50.875Z,21.10
2022-07-31T06:35:24.723Z,25.47
2022-07-31T06:37:55.986Z,22.50
2022-07-31T06:40:31.029Z,18.63
2022-07-31T06:43:02.668Z,28.77
2022-07-31T06:45:51.677Z,23.37
2022-07-31T06:48:20.999Z,26.43
2022-07-31T06:50:49.621Z,19.03
2022-07-31T06:53:20.901Z,20.13
2022-07-31T06:55:50.948Z,30.27
2022-07-31T06:58:21.552Z,25.57
2022-07-31T07:00:51.674Z,24.30
2022-07-31T07:03:20.620Z,19.10
2022-07-31T07:06:10.239Z,22.60
2022-07-31T07:08:41.817Z,20.00
2022-07-31T07:11:12.521Z,24.47
2022-07-31T07:13:45.900Z,22.77
2022-07-31T07:16:15.270Z,28.80
2022-07-31T07:18:44.219Z,25.90
2022-07-31T07:21:12.864Z,22.37
2022-07-31T07:23:41.409Z,30.73
2022-07-31T07:26:11.351Z,24.07
2022-07-31T07:28:44.236Z,21.53
2022-07-31T07:33:57.918Z,26.00
2022-07-31T07:36:38.433Z,26.63
2022-07-31T07:39:08.710Z,23.63
2022-07-31T07:41:47.846Z,26.67
2022-07-31T07:44:16.333Z,23.20
2022-07-31T07:46:47.621Z,22.73
2022-07-31T07:49:22.908Z,22.30
2022-07-31T07:51:59.380Z,22.27
2022-07-31T07:54:35.645Z,23.60
2022-07-31T07:57:06.579Z,22.27
2022-07-31T07:59:37.181Z,18.33
2022-07-31T08:02:05.969Z,20.17
2022-07-31T08:04:37.671Z,19.33
2022-07-31T08:07:06.201Z,23.43
2022-07-31T08:09:34.772Z,20.00
2022-07-31T08:12:03.586Z,21.37
2022-07-31T08:14:33.694Z,20.27
2022-07-31T08:17:02.175Z,16.33
2022-07-31T08:19:33.619Z,21.77
2022-07-31T08:22:02.405Z,20.60
2022-07-31T08:24:31.044Z,20.97
2022-07-31T08:27:17.234Z,22.67
2022-07-31T08:29:51.407Z,19.47
2022-07-31T08:32:19.901Z,19.27
2022-07-31T08:34:49.712Z,21.63
2022-07-31T08:37:51.094Z,23.70
2022-07-31T08:40:10.826Z,25.40
2022-07-31T08:42:42.577Z,22.53
2022-07-31T08:45:15.582Z,24.97
2022-07-31T08:47:44.251Z,25.80
2022-07-31T08:50:13.082Z,25.00
2022-07-31T08:52:42.148Z,25.97
2022-07-31T08:55:10.926Z,26.60
2022-07-31T08:57:55.057Z,30.33
2022-07-31T09:00:28.852Z,27.80
2022-07-31T09:02:57.471Z,27.93
2022-07-31T09:05:41.951Z,33.67
2022-07-31T09:08:15.095Z,28.10
2022-07-31T09:10:49.265Z,30.13
2022-07-31T09:13:19.521Z,29.40
2022-07-31T09:15:50.929Z,28.53
2022-07-31T09:18:20.122Z,26.23
2022-07-31T09:20:57.619Z,27.33
2022-07-31T09:23:26.746Z,28.70
2022-07-31T09:25:55.859Z,28.13
2022-07-31T09:28:33.563Z,26.70
2022-07-31T09:31:04.783Z,29.60
2022-07-31T09:33:33.351Z,26.53
2022-07-31T09:36:03.548Z,25.83
2022-07-31T09:38:32.849Z,27.03
2022-07-31T09:41:55.511Z,26.93
2022-07-31T09:44:02.182Z,25.90
2022-07-31T09:46:45.603Z,29.37
2022-07-31T09:49:15.800Z,24.37
2022-07-31T09:51:45.161Z,23.23
2022-07-31T09:54:27.338Z,22.93
2022-07-31T09:57:17.116Z,20.50
2022-07-31T09:59:52.975Z,16.30
2022-07-31T10:02:34.817Z,22.70
2022-07-31T10:05:03.580Z,21.30
2022-07-31T10:07:35.937Z,22.77
2022-07-31T10:10:04.938Z,21.30
2022-07-31T10:12:33.440Z,15.97
2022-07-31T10:15:05.734Z,15.00
2022-07-31T10:17:36.307Z,15.83
2022-07-31T10:20:12.495Z,17.23
2022-07-31T10:22:45.048Z,14.43
2022-07-31T10:25:17.142Z,13.50
2022-07-31T10:27:45.687Z,12.03
2022-07-31T10:30:22.790Z,13.57
2022-07-31T10:33:17.535Z,12.90
2022-07-31T10:35:59.901Z,14.40
2022-07-31T10:38:29.532Z,17.03
2022-07-31T10:41:05.043Z,12.73
2022-07-31T10:43:38.347Z,10.27
2022-07-31T10:46:09.974Z,10.83
2022-07-31T10:48:51.861Z,15.43
2022-07-31T10:51:22.616Z,11.07
2022-07-31T10:53:57.748Z,10.87
2022-07-31T10:56:27.069Z,9.73
2022-07-31T10:58:59.034Z,11.00
2022-07-31T11:01:43.335Z,10.83
2022-07-31T11:04:29.052Z,11.67
2022-07-31T11:07:00.337Z,12.77
2022-07-31T11:09:30.252Z,13.93
2022-07-31T11:11:58.814Z,16.43
2022-07-31T11:14:35.013Z,13.37
2022-07-31T11:17:04.584Z,11.17
2022-07-31T11:19:41.577Z,12.73
2022-07-31T11:22:32.123Z,14.60
2022-07-31T11:25:04.835Z,15.30
2022-07-31T11:27:33.317Z,9.47
2022-07-31T11:30:13.432Z,11.90
2022-07-31T11:32:42.375Z,16.43
2022-07-31T11:35:17.607Z,12.53
2022-07-31T11:37:58.156Z,11.57
2022-07-31T11:40:30.082Z,13.67
2022-07-31T11:45:50.625Z,11.50
2022-07-31T11:48:19.816Z,12.30
2022-07-31T11:50:50.049Z,12.13
2022-07-31T11:53:21.242Z,13.37
2022-07-31T11:55:50.142Z,11.70
2022-07-31T11:58:18.885Z,9.50
2022-07-31T12:00:54.024Z,8.57
2022-07-31T12:03:25.614Z,10.20
2022-07-31T12:05:57.880Z,11.67
2022-07-31T12:08:31.280Z,14.30
2022-07-31T12:11:01.091Z,12.10
2022-07-31T12:13:32.005Z,11.70
2022-07-31T12:16:12.229Z,12.70
2022-07-31T12:18:49.638Z,8.37
2022-07-31T12:21:25.623Z,8.87
2022-07-31T12:23:57.042Z,9.63
2022-07-31T12:26:28.829Z,7.60
2022-07-31T12:29:00.843Z,9.27
2022-07-31T12:31:37.892Z,10.60
2022-07-31T12:34:09.244Z,8.60
2022-07-31T12:36:39.592Z,9.63
2022-07-31T12:39:08.010Z,9.13
2022-07-31T12:41:48.093Z,10.53
2022-07-31T12:44:21.482Z,10.60
2022-07-31T12:46:50.881Z,13.87
2022-07-31T12:49:21.196Z,13.90
2022-07-31T12:51:57.200Z,12.93
2022-07-31T12:54:31.664Z,13.33
2022-07-31T12:57:00.216Z,11.60
2022-07-31T12:59:28.940Z,13.63
2022-07-31T13:01:57.559Z,11.13
2022-07-31T13:04:32.215Z,12.47
2022-07-31T13:07:07.153Z,11.97
2022-07-31T13:09:38.447Z,11.87
2022-07-31T13:12:07.241Z,15.63
2022-07-31T13:14:37.033Z,18.97
2022-07-31T13:17:06.126Z,15.93
2022-07-31T13:19:40.578Z,15.70
2022-07-31T13:22:13.393Z,11.63
2022-07-31T13:24:41.860Z,11.43
2022-07-31T13:27:14.552Z,10.70
2022-07-31T13:29:43.085Z,12.23
2022-07-31T13:32:12.141Z,11.70
2022-07-31T13:34:42.295Z,12.30
2022-07-31T13:37:10.987Z,10.80
2022-07-31T13:39:46.226Z,11.73
2022-07-31T13:42:17.325Z,17.23
2022-07-31T13:44:47.027Z,11.60
2022-07-31T13:47:20.014Z,12.77
2022-07-31T13:49:55.986Z,12.67
2022-07-31T13:52:28.693Z,14.23
2022-07-31T13:55:15.864Z,16.17
2022-07-31T13:57:49.469Z,13.17
2022-07-31T14:00:37.624Z,15.80
2022-07-31T14:03:09.153Z,17.37
2022-07-31T14:05:44.413Z,14.53
2022-07-31T14:08:33.060Z,14.23
2022-07-31T14:11:28.389Z,15.23
2022-07-31T14:16:52.674Z,13.50
2022-07-31T14:19:28.539Z,12.03
2022-07-31T14:21:57.659Z,16.67
2022-07-31T14:24:26.301Z,15.83
2022-07-31T14:26:59.163Z,17.17
2022-07-31T14:29:32.655Z,14.03
2022-07-31T14:32:07.626Z,12.70
2022-07-31T14:34:41.030Z,14.40
2022-07-31T14:37:09.504Z,15.73
2022-07-31T14:39:42.827Z,14.17
2022-07-31T14:42:15.988Z,17.93
2022-07-31T14:45:00.879Z,21.43
2022-07-31T14:47:32.487Z,12.27
2022-07-31T14:50:12.799Z,12.03
2022-07-31T14:52:43.265Z,13.40
2022-07-31T14:55:12.050Z,17.07
2022-07-31T14:57:44.732Z,18.67
2022-07-31T15:00:13.951Z,15.50
2022-07-31T15:02:42.437Z,14.67
2022-07-31T15:06:41.512Z,17.40
2022-07-31T15:08:04.056Z,20.13
2022-07-31T15:10:32.906Z,15.13
2022-07-31T15:13:05.861Z,15.97
2022-07-31T15:15:40.571Z,17.40
2022-07-31T15:18:11.833Z,13.57
2022-07-31T15:20:41.922Z,17.90
2022-07-31T15:23:10.525Z,17.47
2022-07-31T15:25:43.850Z,14.70
2022-07-31T15:28:16.706Z,13.43
2022-07-31T15:30:45.207Z,20.17
2022-07-31T15:33:15.917Z,16.37
2022-07-31T15:35:56.707Z,16.53
2022-07-31T15:38:27.731Z,15.90
2022-07-31T15:40:56.319Z,16.27
2022-07-31T15:43:26.329Z,22.00
2022-07-31T15:45:57.288Z,16.33
2022-07-31T15:48:31.893Z,19.70
2022-07-31T15:51:02.937Z,24.83
2022-07-31T15:53:34.087Z,18.90
2022-07-31T15:56:10.017Z,23.13
2022-07-31T15:58:45.474Z,22.07
2022-07-31T16:01:14.381Z,21.17
2022-07-31T16:03:51.147Z,24.53
2022-07-31T16:06:28.073Z,25.10
2022-07-31T16:09:00.818Z,25.20
2022-07-31T16:12:02.847Z,20.13
2022-07-31T16:14:19.283Z,23.50
2022-07-31T16:16:48.005Z,23.27
2022-07-31T16:19:27.735Z,19.60
2022-07-31T16:22:04.980Z,16.57
2022-07-31T16:24:33.865Z,23.60
2022-07-31T16:27:05.353Z,19.33
2022-07-31T16:29:59.457Z,21.80
2022-07-31T16:32:32.040Z,24.43
2022-07-31T16:35:03.739Z,25.13
2022-07-31T16:37:50.195Z,20.73
2022-07-31T16:40:29.856Z,21.60
2022-07-31T16:43:49.427Z,23.47
2022-07-31T16:45:57.364Z,21.43
2022-07-31T16:48:29.465Z,18.10
2022-07-31T16:51:00.821Z,23.23
2022-07-31T16:54:10.715Z,22.53
2022-07-31T16:56:19.589Z,16.80
2022-07-31T16:58:51.394Z,22.83
2022-07-31T17:01:56.943Z,18.23
2022-07-31T17:04:15.553Z,27.20
2022-07-31T17:06:58.568Z,20.40
2022-07-31T17:09:31.634Z,17.23
2022-07-31T17:12:17.029Z,23.63
2022-07-31T17:14:48.691Z,25.60
2022-07-31T17:17:19.093Z,19.17
2022-07-31T17:19:47.701Z,24.83
2022-07-31T17:22:17.848Z,22.67
2022-07-31T17:24:50.556Z,22.50
2022-07-31T17:27:19.578Z,21.63
2022-07-31T17:29:49.361Z,26.00
2022-07-31T17:32:24.110Z,24.63
2022-07-31T17:34:52.804Z,26.23
2022-07-31T17:37:26.189Z,27.47
2022-07-31T17:39:58.144Z,20.53
2022-07-31T17:42:34.551Z,26.17
2022-07-31T17:45:03.207Z,22.93
2022-07-31T17:48:03.409Z,19.23
2022-07-31T17:50:26.501Z,19.60
2022-07-31T17:52:55.402Z,29.57
2022-07-31T17:55:28.551Z,20.53
2022-07-31T17:58:03.162Z,22.93
2022-07-31T18:00:35.370Z,24.30
2022-07-31T18:03:14.606Z,23.53
2022-07-31T18:05:43.268Z,24.80
2022-07-31T18:08:14.635Z,29.13
2022-07-31T18:10:54.436Z,25.70
2022-07-31T18:13:29.842Z,29.47
2022-07-31T18:16:00.322Z,23.50
2022-07-31T18:18:32.187Z,28.33
2022-07-31T18:21:01.582Z,27.97
2022-07-31T18:23:32.949Z,25.50
2022-07-31T18:26:01.661Z,24.40
2022-07-31T18:28:31.630Z,22.97
2022-07-31T18:31:03.841Z,28.23
2022-07-31T18:33:48.136Z,22.27
2022-07-31T18:36:19.961Z,29.83
2022-07-31T18:38:50.440Z,24.87
2022-07-31T18:41:19.892Z,23.23
2022-07-31T18:43:48.655Z,26.37
2022-07-31T18:46:21.250Z,25.33
2022-07-31T18:48:55.421Z,23.70
2022-07-31T18:51:28.351Z,24.83
2022-07-31T18:54:02.527Z,23.97
2022-07-31T18:56:31.278Z,24.30
2022-07-31T18:59:08.091Z,25.13
2022-07-31T19:02:16.141Z,27.87
2022-07-31T19:04:55.733Z,22.13
2022-07-31T19:07:35.838Z,20.57
2022-07-31T19:10:05.160Z,23.13
2022-07-31T19:12:33.767Z,19.33
2022-07-31T19:15:09.280Z,23.13
2022-07-31T19:17:43.881Z,23.90
2022-07-31T19:20:56.807Z,25.67
2022-07-31T19:23:21.331Z,19.77
2022-07-31T19:26:03.520Z,23.67
2022-07-31T19:28:35.074Z,27.33
2022-07-31T19:31:09.562Z,25.03
2022-07-31T19:33:40.190Z,25.23
2022-07-31T19:36:12.422Z,23.30
2022-07-31T19:38:44.352Z,33.60
2022-07-31T19:41:22.638Z,25.83
2022-07-31T19:43:53.846Z,28.90
2022-07-31T19:46:26.673Z,24.97
2022-07-31T19:48:55.916Z,31.20
2022-07-31T19:51:29.091Z,22.47
2022-07-31T19:54:09.521Z,23.30
2022-07-31T19:56:39.888Z,26.17
2022-07-31T19:59:21.161Z,20.93
2022-07-31T20:01:51.853Z,21.67
2022-07-31T20:04:37.344Z,26.37
2022-07-31T20:07:13.878Z,35.97
2022-07-31T20:09:45.435Z,29.70
2022-07-31T20:12:15.310Z,24.33
2022-07-31T20:14:46.311Z,29.10
2022-07-31T20:17:17.666Z,31.13
2022-07-31T20:20:15.271Z,34.27
2022-07-31T20:25:56.957Z,26.70
2022-07-31T20:28:30.334Z,25.70
2022-07-31T20:31:07.167Z,26.50
2022-07-31T20:33:56.908Z,29.33
2022-07-31T20:40:25.414Z,23.10
2022-07-31T20:46:36.479Z,20.17
2022-07-31T20:49:35.530Z,19.33
2022-07-31T20:52:06.547Z,22.70
2022-07-31T20:54:35.741Z,27.30
2022-07-31T20:57:15.259Z,18.27
2022-07-31T20:59:43.991Z,18.83
2022-07-31T21:02:22.393Z,13.07
2022-07-31T21:04:52.488Z,12.63
2022-07-31T21:07:46.750Z,7.87
2022-07-31T21:10:15.642Z,8.37
2022-07-31T21:13:06.850Z,9.47
2022-07-31T21:15:44.476Z,10.97
2022-07-31T21:18:15.631Z,10.17
2022-07-31T21:20:52.079Z,6.53
2022-07-31T21:23:33.851Z,8.27
2022-07-31T21:26:03.048Z,6.77
2022-07-31T21:28:31.842Z,10.70
2022-07-31T21:31:05.043Z,9.83
2022-07-31T21:34:04.606Z,8.87
2022-07-31T21:39:46.178Z,7.63
2022-07-31T21:42:15.587Z,9.93
2022-07-31T21:44:47.111Z,9.77
2022-07-31T21:50:31.496Z,9.27
2022-07-31T21:56:22.260Z,8.77
2022-07-31T21:59:13.312Z,6.80
2022-07-31T22:01:57.860Z,9.53
2022-07-31T22:04:35.708Z,10.67
2022-07-31T22:07:42.443Z,9.30
2022-07-31T22:10:15.683Z,9.83
2022-07-31T22:16:00.978Z,9.77
2022-07-31T22:21:41.851Z,8.80
2022-07-31T22:24:10.861Z,8.00
2022-07-31T22:26:59.889Z,7.97
2022-07-31T22:29:33.079Z,8.70
2022-07-31T22:32:05.562Z,6.37
2022-07-31T22:34:38.396Z,7.17
2022-07-31T22:37:07.152Z,5.33
2022-07-31T22:39:36.860Z,5.90
2022-07-31T22:42:06.090Z,8.50
2022-07-31T22:44:39.339Z,6.47
2022-07-31T22:47:09.456Z,8.90
2022-07-31T22:49:39.661Z,6.00
2022-07-31T22:52:17.368Z,8.27
2022-07-31T22:54:47.705Z,6.43
2022-07-31T22:57:21.002Z,6.63
2022-07-31T22:59:57.600Z,4.77
2022-07-31T23:02:28.987Z,5.50
2022-07-31T23:04:59.868Z,6.77
2022-07-31T23:07:30.593Z,6.87
2022-07-31T23:10:05.239Z,7.60
2022-07-31T23:12:33.825Z,7.20
2022-07-31T23:15:04.331Z,7.53
2022-07-31T23:17:46.940Z,5.90
2022-07-31T23:20:17.352Z,6.73
2022-07-31T23:22:47.508Z,8.40
2022-07-31T23:25:20.971Z,7.57
2022-07-31T23:27:49.881Z,8.27
2022-07-31T23:30:30.402Z,7.07
2022-07-31T23:33:04.776Z,9.07
2022-07-31T23:35:39.194Z,9.03
2022-07-31T23:38:15.566Z,11.00
2022-07-31T23:40:52.132Z,5.80
2022-07-31T23:43:21.643Z,9.40
2022-07-31T23:45:51.863Z,8.33
2022-07-31T23:48:30.019Z,10.50
2022-07-31T23:51:03.070Z,10.57
2022-07-31T23:53:34.096Z,9.07
2022-07-31T23:56:02.979Z,9.10
2022-07-31T23:58:36.911Z,10.10
